sensor_id;sensor_type;location;lat;lon;timestamp;temperature;humidity
74513;DHT22;62992;52.052;8.550;2022-12-29T00:00:39;9.80;99.90
74513;DHT22;62992;52.052;8.550;2022-12-29T00:03:23;9.80;99.90
74513;DHT22;62992;52.052;8.550;2022-12-29T00:06:07;9.90;99.90
74513;DHT22;62992;52.052;8.550;2022-12-29T00:08:52;9.80;99.90
74513;DHT22;62992;52.052;8.550;2022-12-29T00:11:36;9.80;99.90
74513;DHT22;62992;52.052;8.550;2022-12-29T00:14:20;9.90;99.90
74513;DHT22;62992;52.052;8.550;2022-12-29T00:17:23;9.90;99.90
74513;DHT22;62992;52.052;8.550;2022-12-29T00:20:08;9.90;99.90
74513;DHT22;62992;52.052;8.550;2022-12-29T00:23:11;9.90;99.90
74513;DHT22;62992;52.052;8.550;2022-12-29T00:26:15;9.80;99.90
74513;DHT22;62992;52.052;8.550;2022-12-29T00:29:18;9.90;99.90
74513;DHT22;62992;52.052;8.550;2022-12-29T00:32:29;9.90;99.90
74513;DHT22;62992;52.052;8.550;2022-12-29T00:35:38;9.90;99.90
74513;DHT22;62992;52.052;8.550;2022-12-29T00:38:23;9.90;99.90
74513;DHT22;62992;52.052;8.550;2022-12-29T00:41:27;9.90;99.90
74513;DHT22;62992;52.052;8.550;2022-12-29T00:44:29;9.90;99.90
74513;DHT22;62992;52.052;8.550;2022-12-29T00:47:13;9.90;99.90
74513;DHT22;62992;52.052;8.550;2022-12-29T00:49:57;9.90;99.90
74513;DHT22;62992;52.052;8.550;2022-12-29T00:52:41;10.00;99.90
74513;DHT22;62992;52.052;8.550;2022-12-29T00:55:25;9.90;99.90
74513;DHT22;62992;52.052;8.550;2022-12-29T00:58:09;10.00;99.90
74513;DHT22;62992;52.052;8.550;2022-12-29T01:01:09;10.00;99.90
74513;DHT22;62992;52.052;8.550;2022-12-29T01:03:54;9.90;99.90
74513;DHT22;62992;52.052;8.550;2022-12-29T01:06:40;9.90;99.90
74513;DHT22;62992;52.052;8.550;2022-12-29T01:09:25;9.90;99.90
74513;DHT22;62992;52.052;8.550;2022-12-29T01:12:28;9.90;99.90
74513;DHT22;62992;52.052;8.550;2022-12-29T01:15:24;9.90;99.90
74513;DHT22;62992;52.052;8.550;2022-12-29T01:18:08;9.90;99.90
74513;DHT22;62992;52.052;8.550;2022-12-29T01:21:04;10.00;99.90
74513;DHT22;62992;52.052;8.550;2022-12-29T01:23:48;10.00;99.90
74513;DHT22;62992;52.052;8.550;2022-12-29T01:26:32;9.90;99.90
74513;DHT22;62992;52.052;8.550;2022-12-29T01:29:17;9.90;99.90
74513;DHT22;62992;52.052;8.550;2022-12-29T01:32:01;10.00;99.90
74513;DHT22;62992;52.052;8.550;2022-12-29T01:34:45;10.00;99.90
74513;DHT22;62992;52.052;8.550;2022-12-29T01:37:29;10.00;99.90
74513;DHT22;62992;52.052;8.550;2022-12-29T01:40:13;10.00;99.90
74513;DHT22;62992;52.052;8.550;2022-12-29T01:42:58;10.00;99.90
74513;DHT22;62992;52.052;8.550;2022-12-29T01:45:48;9.80;99.90
74513;DHT22;62992;52.052;8.550;2022-12-29T01:48:34;9.90;99.90
74513;DHT22;62992;52.052;8.550;2022-12-29T01:51:19;10.10;99.90
74513;DHT22;62992;52.052;8.550;2022-12-29T01:54:09;10.10;99.90
74513;DHT22;62992;52.052;8.550;2022-12-29T01:56:58;10.00;99.90
74513;DHT22;62992;52.052;8.550;2022-12-29T01:59:53;10.10;99.90
74513;DHT22;62992;52.052;8.550;2022-12-29T02:02:42;10.00;99.90
74513;DHT22;62992;52.052;8.550;2022-12-29T02:05:41;10.00;99.90
74513;DHT22;62992;52.052;8.550;2022-12-29T02:08:28;10.10;99.90
74513;DHT22;62992;52.052;8.550;2022-12-29T02:11:13;10.10;99.90
74513;DHT22;62992;52.052;8.550;2022-12-29T02:13:57;10.00;99.90
74513;DHT22;62992;52.052;8.550;2022-12-29T02:23:40;9.80;99.90
74513;DHT22;62992;52.052;8.550;2022-12-29T02:36:22;9.90;99.90
74513;DHT22;62992;52.052;8.550;2022-12-29T02:39:48;9.80;99.90
74513;DHT22;62992;52.052;8.550;2022-12-29T02:42:36;9.90;99.90
74513;DHT22;62992;52.052;8.550;2022-12-29T02:45:28;10.00;99.90
74513;DHT22;62992;52.052;8.550;2022-12-29T02:48:27;10.00;99.90
74513;DHT22;62992;52.052;8.550;2022-12-29T02:51:19;10.00;99.90
74513;DHT22;62992;52.052;8.550;2022-12-29T02:54:04;9.90;99.90
74513;DHT22;62992;52.052;8.550;2022-12-29T02:57:32;10.00;99.90
74513;DHT22;62992;52.052;8.550;2022-12-29T03:00:17;10.00;99.90
74513;DHT22;62992;52.052;8.550;2022-12-29T03:08:55;10.10;99.90
74513;DHT22;62992;52.052;8.550;2022-12-29T03:15:09;10.20;99.90
74513;DHT22;62992;52.052;8.550;2022-12-29T03:18:18;10.20;99.90
74513;DHT22;62992;52.052;8.550;2022-12-29T03:21:19;10.20;99.90
74513;DHT22;62992;52.052;8.550;2022-12-29T03:24:06;10.30;99.90
74513;DHT22;62992;52.052;8.550;2022-12-29T03:26:53;10.30;99.90
74513;DHT22;62992;52.052;8.550;2022-12-29T03:29:43;10.50;99.90
74513;DHT22;62992;52.052;8.550;2022-12-29T03:32:33;10.50;99.90
74513;DHT22;62992;52.052;8.550;2022-12-29T03:35:22;10.40;99.90
74513;DHT22;62992;52.052;8.550;2022-12-29T03:38:15;10.50;99.90
74513;DHT22;62992;52.052;8.550;2022-12-29T03:41:03;10.50;99.90
74513;DHT22;62992;52.052;8.550;2022-12-29T03:43:48;10.60;99.90
74513;DHT22;62992;52.052;8.550;2022-12-29T03:46:32;10.60;99.90
74513;DHT22;62992;52.052;8.550;2022-12-29T03:49:17;10.60;99.90
74513;DHT22;62992;52.052;8.550;2022-12-29T03:52:01;10.60;99.90
74513;DHT22;62992;52.052;8.550;2022-12-29T03:54:45;10.60;99.90
74513;DHT22;62992;52.052;8.550;2022-12-29T03:57:31;10.60;99.90
74513;DHT22;62992;52.052;8.550;2022-12-29T04:00:15;10.60;99.90
74513;DHT22;62992;52.052;8.550;2022-12-29T04:02:59;10.60;99.90
74513;DHT22;62992;52.052;8.550;2022-12-29T04:05:43;10.70;99.90
74513;DHT22;62992;52.052;8.550;2022-12-29T04:08:28;10.70;99.90
74513;DHT22;62992;52.052;8.550;2022-12-29T04:11:12;10.70;99.90
74513;DHT22;62992;52.052;8.550;2022-12-29T04:13:56;10.70;99.90
74513;DHT22;62992;52.052;8.550;2022-12-29T04:16:40;10.80;99.90
74513;DHT22;62992;52.052;8.550;2022-12-29T04:19:24;10.70;99.90
74513;DHT22;62992;52.052;8.550;2022-12-29T04:22:08;10.80;99.90
74513;DHT22;62992;52.052;8.550;2022-12-29T04:24:52;10.80;99.90
74513;DHT22;62992;52.052;8.550;2022-12-29T04:27:36;10.80;99.90
74513;DHT22;62992;52.052;8.550;2022-12-29T04:30:20;10.90;99.90
74513;DHT22;62992;52.052;8.550;2022-12-29T04:33:04;10.90;99.90
74513;DHT22;62992;52.052;8.550;2022-12-29T04:35:49;10.90;99.90
74513;DHT22;62992;52.052;8.550;2022-12-29T04:38:33;10.90;99.90
74513;DHT22;62992;52.052;8.550;2022-12-29T04:41:17;10.90;99.90
74513;DHT22;62992;52.052;8.550;2022-12-29T04:44:01;10.80;99.90
74513;DHT22;62992;52.052;8.550;2022-12-29T04:46:45;10.70;99.90
74513;DHT22;62992;52.052;8.550;2022-12-29T04:49:29;10.50;99.90
74513;DHT22;62992;52.052;8.550;2022-12-29T04:52:13;10.60;99.90
74513;DHT22;62992;52.052;8.550;2022-12-29T04:54:57;10.60;99.90
74513;DHT22;62992;52.052;8.550;2022-12-29T04:57:41;10.50;99.90
74513;DHT22;62992;52.052;8.550;2022-12-29T05:00:25;10.50;99.90
74513;DHT22;62992;52.052;8.550;2022-12-29T05:03:10;10.40;99.90
74513;DHT22;62992;52.052;8.550;2022-12-29T05:05:55;10.40;99.90
74513;DHT22;62992;52.052;8.550;2022-12-29T05:08:40;10.40;99.90
74513;DHT22;62992;52.052;8.550;2022-12-29T05:11:24;10.30;99.90
74513;DHT22;62992;52.052;8.550;2022-12-29T05:14:08;10.30;99.90
74513;DHT22;62992;52.052;8.550;2022-12-29T05:16:52;10.30;99.90
74513;DHT22;62992;52.052;8.550;2022-12-29T05:19:37;10.40;99.90
74513;DHT22;62992;52.052;8.550;2022-12-29T05:22:22;10.50;99.90
74513;DHT22;62992;52.052;8.550;2022-12-29T05:25:06;10.50;99.90
74513;DHT22;62992;52.052;8.550;2022-12-29T05:27:51;10.50;99.90
74513;DHT22;62992;52.052;8.550;2022-12-29T05:30:35;10.50;99.90
74513;DHT22;62992;52.052;8.550;2022-12-29T05:33:19;10.50;99.90
74513;DHT22;62992;52.052;8.550;2022-12-29T05:36:05;10.50;99.90
74513;DHT22;62992;52.052;8.550;2022-12-29T05:38:49;10.50;99.90
74513;DHT22;62992;52.052;8.550;2022-12-29T05:41:34;10.40;99.90
74513;DHT22;62992;52.052;8.550;2022-12-29T05:44:18;10.60;99.90
74513;DHT22;62992;52.052;8.550;2022-12-29T05:47:02;10.60;99.90
74513;DHT22;62992;52.052;8.550;2022-12-29T05:49:46;10.70;99.90
74513;DHT22;62992;52.052;8.550;2022-12-29T05:52:30;10.70;99.90
74513;DHT22;62992;52.052;8.550;2022-12-29T05:55:14;10.70;99.90
74513;DHT22;62992;52.052;8.550;2022-12-29T05:57:58;10.80;99.90
74513;DHT22;62992;52.052;8.550;2022-12-29T06:00:43;10.70;99.90
74513;DHT22;62992;52.052;8.550;2022-12-29T06:03:27;10.80;99.90
74513;DHT22;62992;52.052;8.550;2022-12-29T06:06:11;10.80;99.90
74513;DHT22;62992;52.052;8.550;2022-12-29T06:08:55;10.80;99.90
74513;DHT22;62992;52.052;8.550;2022-12-29T06:11:39;10.80;99.90
74513;DHT22;62992;52.052;8.550;2022-12-29T06:14:23;10.90;99.90
74513;DHT22;62992;52.052;8.550;2022-12-29T06:17:07;10.90;99.90
74513;DHT22;62992;52.052;8.550;2022-12-29T06:19:51;11.00;99.90
74513;DHT22;62992;52.052;8.550;2022-12-29T06:22:36;11.00;99.90
74513;DHT22;62992;52.052;8.550;2022-12-29T06:25:20;10.90;99.90
74513;DHT22;62992;52.052;8.550;2022-12-29T06:28:04;10.70;99.90
74513;DHT22;62992;52.052;8.550;2022-12-29T06:30:49;10.20;99.90
74513;DHT22;62992;52.052;8.550;2022-12-29T06:33:33;9.90;99.90
74513;DHT22;62992;52.052;8.550;2022-12-29T06:36:17;9.80;99.90
74513;DHT22;62992;52.052;8.550;2022-12-29T06:39:01;9.60;99.90
74513;DHT22;62992;52.052;8.550;2022-12-29T06:41:45;9.60;99.90
74513;DHT22;62992;52.052;8.550;2022-12-29T06:44:30;9.50;99.90
74513;DHT22;62992;52.052;8.550;2022-12-29T06:47:14;9.40;99.90
74513;DHT22;62992;52.052;8.550;2022-12-29T06:49:58;9.40;99.90
74513;DHT22;62992;52.052;8.550;2022-12-29T06:52:42;9.40;99.90
74513;DHT22;62992;52.052;8.550;2022-12-29T06:55:26;9.30;99.90
74513;DHT22;62992;52.052;8.550;2022-12-29T06:58:10;9.20;99.90
74513;DHT22;62992;52.052;8.550;2022-12-29T07:00:54;9.20;99.90
74513;DHT22;62992;52.052;8.550;2022-12-29T07:03:41;9.20;99.90
74513;DHT22;62992;52.052;8.550;2022-12-29T07:06:25;9.20;99.90
74513;DHT22;62992;52.052;8.550;2022-12-29T07:09:10;9.20;99.90
74513;DHT22;62992;52.052;8.550;2022-12-29T07:11:54;9.20;99.90
74513;DHT22;62992;52.052;8.550;2022-12-29T07:14:38;9.10;99.90
74513;DHT22;62992;52.052;8.550;2022-12-29T07:17:23;9.20;99.90
74513;DHT22;62992;52.052;8.550;2022-12-29T07:20:08;9.20;99.90
74513;DHT22;62992;52.052;8.550;2022-12-29T07:22:53;9.40;99.90
74513;DHT22;62992;52.052;8.550;2022-12-29T07:25:38;9.40;99.90
74513;DHT22;62992;52.052;8.550;2022-12-29T07:28:24;9.40;99.90
74513;DHT22;62992;52.052;8.550;2022-12-29T07:31:14;9.40;99.90
74513;DHT22;62992;52.052;8.550;2022-12-29T07:33:59;9.40;99.90
74513;DHT22;62992;52.052;8.550;2022-12-29T07:36:43;9.40;99.90
74513;DHT22;62992;52.052;8.550;2022-12-29T07:39:27;9.40;99.90
74513;DHT22;62992;52.052;8.550;2022-12-29T07:42:11;9.40;99.90
74513;DHT22;62992;52.052;8.550;2022-12-29T07:44:55;9.50;99.90
74513;DHT22;62992;52.052;8.550;2022-12-29T07:47:39;9.40;99.90
74513;DHT22;62992;52.052;8.550;2022-12-29T07:50:23;9.40;99.90
74513;DHT22;62992;52.052;8.550;2022-12-29T07:53:07;9.50;99.90
74513;DHT22;62992;52.052;8.550;2022-12-29T07:55:51;9.50;99.90
74513;DHT22;62992;52.052;8.550;2022-12-29T07:58:35;9.60;99.90
74513;DHT22;62992;52.052;8.550;2022-12-29T08:01:19;9.60;99.90
74513;DHT22;62992;52.052;8.550;2022-12-29T08:04:03;9.70;99.90
74513;DHT22;62992;52.052;8.550;2022-12-29T08:06:48;9.60;99.90
74513;DHT22;62992;52.052;8.550;2022-12-29T08:09:32;9.60;99.90
74513;DHT22;62992;52.052;8.550;2022-12-29T08:12:16;9.60;99.90
74513;DHT22;62992;52.052;8.550;2022-12-29T08:15:01;9.60;99.90
74513;DHT22;62992;52.052;8.550;2022-12-29T08:17:45;9.60;99.90
74513;DHT22;62992;52.052;8.550;2022-12-29T08:20:29;9.60;99.90
74513;DHT22;62992;52.052;8.550;2022-12-29T08:23:13;9.60;99.90
74513;DHT22;62992;52.052;8.550;2022-12-29T08:25:59;9.50;99.90
74513;DHT22;62992;52.052;8.550;2022-12-29T08:28:44;9.50;99.90
74513;DHT22;62992;52.052;8.550;2022-12-29T08:31:28;9.60;99.90
74513;DHT22;62992;52.052;8.550;2022-12-29T08:34:12;9.70;99.90
74513;DHT22;62992;52.052;8.550;2022-12-29T08:36:57;9.60;99.90
74513;DHT22;62992;52.052;8.550;2022-12-29T08:39:41;9.80;99.90
74513;DHT22;62992;52.052;8.550;2022-12-29T08:42:25;9.80;99.90
74513;DHT22;62992;52.052;8.550;2022-12-29T08:45:14;9.90;99.90
74513;DHT22;62992;52.052;8.550;2022-12-29T08:47:58;9.90;99.90
74513;DHT22;62992;52.052;8.550;2022-12-29T08:50:43;9.80;99.90
74513;DHT22;62992;52.052;8.550;2022-12-29T08:53:27;9.90;99.90
74513;DHT22;62992;52.052;8.550;2022-12-29T08:56:11;9.90;99.90
74513;DHT22;62992;52.052;8.550;2022-12-29T08:58:55;9.90;99.90
74513;DHT22;62992;52.052;8.550;2022-12-29T09:01:40;10.00;99.90
74513;DHT22;62992;52.052;8.550;2022-12-29T09:04:24;10.10;99.90
74513;DHT22;62992;52.052;8.550;2022-12-29T09:07:09;10.00;99.90
74513;DHT22;62992;52.052;8.550;2022-12-29T09:09:53;9.90;99.90
74513;DHT22;62992;52.052;8.550;2022-12-29T09:12:37;9.80;99.90
74513;DHT22;62992;52.052;8.550;2022-12-29T09:15:22;9.80;99.90
74513;DHT22;62992;52.052;8.550;2022-12-29T09:18:07;9.70;99.90
74513;DHT22;62992;52.052;8.550;2022-12-29T09:20:59;9.80;99.90
74513;DHT22;62992;52.052;8.550;2022-12-29T09:23:43;9.80;99.90
74513;DHT22;62992;52.052;8.550;2022-12-29T09:26:27;9.90;99.90
74513;DHT22;62992;52.052;8.550;2022-12-29T09:29:11;10.10;99.90
74513;DHT22;62992;52.052;8.550;2022-12-29T09:31:55;10.60;99.90
74513;DHT22;62992;52.052;8.550;2022-12-29T09:34:39;10.70;99.90
74513;DHT22;62992;52.052;8.550;2022-12-29T09:37:23;10.60;99.90
74513;DHT22;62992;52.052;8.550;2022-12-29T09:40:12;10.70;99.90
74513;DHT22;62992;52.052;8.550;2022-12-29T09:45:59;10.60;99.90
74513;DHT22;62992;52.052;8.550;2022-12-29T09:48:50;10.60;99.90
74513;DHT22;62992;52.052;8.550;2022-12-29T09:51:38;10.50;99.90
74513;DHT22;62992;52.052;8.550;2022-12-29T09:54:45;10.40;99.90
74513;DHT22;62992;52.052;8.550;2022-12-29T09:57:45;10.30;99.90
74513;DHT22;62992;52.052;8.550;2022-12-29T10:00:41;10.30;99.90
74513;DHT22;62992;52.052;8.550;2022-12-29T10:06:40;10.40;99.90
74513;DHT22;62992;52.052;8.550;2022-12-29T10:09:45;10.50;99.90
74513;DHT22;62992;52.052;8.550;2022-12-29T10:13:36;10.40;99.90
74513;DHT22;62992;52.052;8.550;2022-12-29T10:16:35;10.40;99.90
74513;DHT22;62992;52.052;8.550;2022-12-29T10:23:13;10.50;99.90
74513;DHT22;62992;52.052;8.550;2022-12-29T10:26:03;10.90;99.90
74513;DHT22;62992;52.052;8.550;2022-12-29T10:28:58;11.60;99.90
74513;DHT22;62992;52.052;8.550;2022-12-29T10:31:59;11.70;99.90
74513;DHT22;62992;52.052;8.550;2022-12-29T10:34:54;12.20;99.90
74513;DHT22;62992;52.052;8.550;2022-12-29T10:37:59;12.40;99.90
74513;DHT22;62992;52.052;8.550;2022-12-29T10:43:46;11.90;99.90
74513;DHT22;62992;52.052;8.550;2022-12-29T10:46:35;11.50;99.90
74513;DHT22;62992;52.052;8.550;2022-12-29T10:49:20;11.10;99.90
74513;DHT22;62992;52.052;8.550;2022-12-29T10:52:06;11.20;99.90
74513;DHT22;62992;52.052;8.550;2022-12-29T10:55:02;11.10;99.90
74513;DHT22;62992;52.052;8.550;2022-12-29T10:57:47;11.10;99.90
74513;DHT22;62992;52.052;8.550;2022-12-29T11:00:32;11.00;99.90
74513;DHT22;62992;52.052;8.550;2022-12-29T11:03:44;11.00;99.90
74513;DHT22;62992;52.052;8.550;2022-12-29T11:06:32;10.90;99.90
74513;DHT22;62992;52.052;8.550;2022-12-29T11:09:28;10.90;99.90
74513;DHT22;62992;52.052;8.550;2022-12-29T11:12:19;10.90;99.90
74513;DHT22;62992;52.052;8.550;2022-12-29T11:17:57;10.90;99.90
74513;DHT22;62992;52.052;8.550;2022-12-29T11:20:42;10.90;99.90
74513;DHT22;62992;52.052;8.550;2022-12-29T11:26:26;10.80;99.90
74513;DHT22;62992;52.052;8.550;2022-12-29T11:31:58;10.70;99.90
74513;DHT22;62992;52.052;8.550;2022-12-29T11:34:43;10.70;99.90
74513;DHT22;62992;52.052;8.550;2022-12-29T11:37:30;10.70;99.90
74513;DHT22;62992;52.052;8.550;2022-12-29T11:40:20;10.70;99.90
74513;DHT22;62992;52.052;8.550;2022-12-29T11:43:05;10.70;99.90
74513;DHT22;62992;52.052;8.550;2022-12-29T11:45:52;10.70;99.90
74513;DHT22;62992;52.052;8.550;2022-12-29T11:48:40;10.60;99.90
74513;DHT22;62992;52.052;8.550;2022-12-29T11:51:29;10.70;99.90
74513;DHT22;62992;52.052;8.550;2022-12-29T11:54:27;10.70;99.90
74513;DHT22;62992;52.052;8.550;2022-12-29T11:57:15;10.80;99.90
74513;DHT22;62992;52.052;8.550;2022-12-29T12:00:15;10.80;99.90
74513;DHT22;62992;52.052;8.550;2022-12-29T12:03:04;10.70;99.90
74513;DHT22;62992;52.052;8.550;2022-12-29T12:05:55;10.70;99.90
74513;DHT22;62992;52.052;8.550;2022-12-29T12:08:57;10.70;99.90
74513;DHT22;62992;52.052;8.550;2022-12-29T12:11:43;10.80;99.90
74513;DHT22;62992;52.052;8.550;2022-12-29T12:14:41;10.80;99.90
74513;DHT22;62992;52.052;8.550;2022-12-29T12:17:50;10.80;99.90
74513;DHT22;62992;52.052;8.550;2022-12-29T12:20:57;10.80;99.90
74513;DHT22;62992;52.052;8.550;2022-12-29T12:27:21;10.80;99.90
74513;DHT22;62992;52.052;8.550;2022-12-29T12:30:15;10.80;99.90
74513;DHT22;62992;52.052;8.550;2022-12-29T12:33:10;10.80;99.90
74513;DHT22;62992;52.052;8.550;2022-12-29T12:52:08;10.80;99.90
74513;DHT22;62992;52.052;8.550;2022-12-29T13:01:30;10.80;99.90
74513;DHT22;62992;52.052;8.550;2022-12-29T13:10:53;10.80;99.90
74513;DHT22;62992;52.052;8.550;2022-12-29T13:16:51;10.80;99.90
74513;DHT22;62992;52.052;8.550;2022-12-29T13:26:20;10.70;99.90
74513;DHT22;62992;52.052;8.550;2022-12-29T13:29:27;10.70;99.90
74513;DHT22;62992;52.052;8.550;2022-12-29T13:32:35;10.70;99.90
74513;DHT22;62992;52.052;8.550;2022-12-29T13:41:29;10.70;99.90
74513;DHT22;62992;52.052;8.550;2022-12-29T13:44:19;10.60;99.90
74513;DHT22;62992;52.052;8.550;2022-12-29T13:50:22;10.60;99.90
74513;DHT22;62992;52.052;8.550;2022-12-29T13:56:38;10.50;99.90
74513;DHT22;62992;52.052;8.550;2022-12-29T13:59:48;10.50;99.90
74513;DHT22;62992;52.052;8.550;2022-12-29T14:05:30;10.40;99.90
74513;DHT22;62992;52.052;8.550;2022-12-29T14:08:16;10.30;99.90
74513;DHT22;62992;52.052;8.550;2022-12-29T14:11:09;10.30;99.90
74513;DHT22;62992;52.052;8.550;2022-12-29T14:13:54;10.30;99.90
74513;DHT22;62992;52.052;8.550;2022-12-29T14:16:38;10.40;99.90
74513;DHT22;62992;52.052;8.550;2022-12-29T14:19:33;10.40;99.90
74513;DHT22;62992;52.052;8.550;2022-12-29T14:22:24;10.40;99.90
74513;DHT22;62992;52.052;8.550;2022-12-29T14:37:01;10.30;99.90
74513;DHT22;62992;52.052;8.550;2022-12-29T14:39:45;10.20;99.90
74513;DHT22;62992;52.052;8.550;2022-12-29T14:42:30;10.20;99.90
74513;DHT22;62992;52.052;8.550;2022-12-29T14:47:59;10.10;99.90
74513;DHT22;62992;52.052;8.550;2022-12-29T14:50:44;10.10;99.90
74513;DHT22;62992;52.052;8.550;2022-12-29T14:56:29;10.10;99.90
74513;DHT22;62992;52.052;8.550;2022-12-29T14:59:16;10.00;99.90
74513;DHT22;62992;52.052;8.550;2022-12-29T15:02:03;10.00;99.90
74513;DHT22;62992;52.052;8.550;2022-12-29T15:04:47;10.00;99.90
74513;DHT22;62992;52.052;8.550;2022-12-29T15:07:32;10.00;99.90
74513;DHT22;62992;52.052;8.550;2022-12-29T15:10:19;10.10;99.90
74513;DHT22;62992;52.052;8.550;2022-12-29T15:13:10;10.10;99.90
74513;DHT22;62992;52.052;8.550;2022-12-29T15:15:57;10.00;99.90
74513;DHT22;62992;52.052;8.550;2022-12-29T15:18:41;10.10;99.90
74513;DHT22;62992;52.052;8.550;2022-12-29T15:21:33;10.00;99.90
74513;DHT22;62992;52.052;8.550;2022-12-29T15:24:18;10.10;99.90
74513;DHT22;62992;52.052;8.550;2022-12-29T15:27:03;10.10;99.90
74513;DHT22;62992;52.052;8.550;2022-12-29T15:29:56;10.00;99.90
74513;DHT22;62992;52.052;8.550;2022-12-29T15:32:43;10.00;99.90
74513;DHT22;62992;52.052;8.550;2022-12-29T15:35:29;10.00;99.90
74513;DHT22;62992;52.052;8.550;2022-12-29T15:38:14;10.00;99.90
74513;DHT22;62992;52.052;8.550;2022-12-29T15:41:06;10.10;99.90
74513;DHT22;62992;52.052;8.550;2022-12-29T15:47:26;10.10;99.90
74513;DHT22;62992;52.052;8.550;2022-12-29T15:50:34;10.00;99.90
74513;DHT22;62992;52.052;8.550;2022-12-29T15:53:32;10.10;99.90
74513;DHT22;62992;52.052;8.550;2022-12-29T15:56:17;10.10;99.90
74513;DHT22;62992;52.052;8.550;2022-12-29T15:59:02;10.00;99.90
74513;DHT22;62992;52.052;8.550;2022-12-29T16:01:46;10.00;99.90
74513;DHT22;62992;52.052;8.550;2022-12-29T16:04:31;10.00;99.90
74513;DHT22;62992;52.052;8.550;2022-12-29T16:07:31;10.10;99.90
74513;DHT22;62992;52.052;8.550;2022-12-29T16:10:26;10.00;99.90
74513;DHT22;62992;52.052;8.550;2022-12-29T16:13:23;9.90;99.90
74513;DHT22;62992;52.052;8.550;2022-12-29T16:16:12;10.00;99.90
74513;DHT22;62992;52.052;8.550;2022-12-29T16:18:58;10.00;99.90
74513;DHT22;62992;52.052;8.550;2022-12-29T16:21:42;9.90;99.90
74513;DHT22;62992;52.052;8.550;2022-12-29T16:24:31;9.80;99.90
74513;DHT22;62992;52.052;8.550;2022-12-29T16:27:28;9.80;99.90
74513;DHT22;62992;52.052;8.550;2022-12-29T16:30:27;9.90;99.90
74513;DHT22;62992;52.052;8.550;2022-12-29T16:33:48;9.90;99.90
74513;DHT22;62992;52.052;8.550;2022-12-29T16:36:40;9.80;99.90
74513;DHT22;62992;52.052;8.550;2022-12-29T16:39:34;9.80;99.90
74513;DHT22;62992;52.052;8.550;2022-12-29T16:48:35;9.80;99.90
74513;DHT22;62992;52.052;8.550;2022-12-29T16:51:32;9.80;99.90
74513;DHT22;62992;52.052;8.550;2022-12-29T16:54:24;9.70;99.90
74513;DHT22;62992;52.052;8.550;2022-12-29T16:57:08;9.70;99.90
74513;DHT22;62992;52.052;8.550;2022-12-29T16:59:55;9.60;99.90
74513;DHT22;62992;52.052;8.550;2022-12-29T17:02:41;9.60;99.90
74513;DHT22;62992;52.052;8.550;2022-12-29T17:05:28;9.70;99.90
74513;DHT22;62992;52.052;8.550;2022-12-29T17:08:20;9.70;99.90
74513;DHT22;62992;52.052;8.550;2022-12-29T17:17:38;9.70;99.90
74513;DHT22;62992;52.052;8.550;2022-12-29T17:20:30;9.60;99.90
74513;DHT22;62992;52.052;8.550;2022-12-29T17:23:15;9.40;99.90
74513;DHT22;62992;52.052;8.550;2022-12-29T17:25:59;9.10;99.90
74513;DHT22;62992;52.052;8.550;2022-12-29T17:28:45;8.90;99.90
74513;DHT22;62992;52.052;8.550;2022-12-29T17:31:30;8.70;99.90
74513;DHT22;62992;52.052;8.550;2022-12-29T17:34:14;8.60;99.90
74513;DHT22;62992;52.052;8.550;2022-12-29T17:36:59;8.50;99.90
74513;DHT22;62992;52.052;8.550;2022-12-29T17:39:43;8.40;99.90
74513;DHT22;62992;52.052;8.550;2022-12-29T17:42:27;8.40;99.90
74513;DHT22;62992;52.052;8.550;2022-12-29T17:45:20;8.40;99.90
74513;DHT22;62992;52.052;8.550;2022-12-29T17:48:13;8.30;99.90
74513;DHT22;62992;52.052;8.550;2022-12-29T17:50:58;8.30;99.90
74513;DHT22;62992;52.052;8.550;2022-12-29T17:53:42;8.60;99.90
74513;DHT22;62992;52.052;8.550;2022-12-29T17:56:27;8.60;99.90
74513;DHT22;62992;52.052;8.550;2022-12-29T17:59:11;8.60;99.90
74513;DHT22;62992;52.052;8.550;2022-12-29T18:01:57;8.60;99.90
74513;DHT22;62992;52.052;8.550;2022-12-29T18:04:41;8.60;99.90
74513;DHT22;62992;52.052;8.550;2022-12-29T18:07:27;8.60;99.90
74513;DHT22;62992;52.052;8.550;2022-12-29T18:10:13;8.60;99.90
74513;DHT22;62992;52.052;8.550;2022-12-29T18:12:59;8.60;99.90
74513;DHT22;62992;52.052;8.550;2022-12-29T18:15:43;8.60;99.90
74513;DHT22;62992;52.052;8.550;2022-12-29T18:18:27;8.70;99.90
74513;DHT22;62992;52.052;8.550;2022-12-29T18:21:19;8.70;99.90
74513;DHT22;62992;52.052;8.550;2022-12-29T18:24:04;8.70;99.90
74513;DHT22;62992;52.052;8.550;2022-12-29T18:26:48;8.70;99.90
74513;DHT22;62992;52.052;8.550;2022-12-29T18:29:33;8.60;99.90
74513;DHT22;62992;52.052;8.550;2022-12-29T18:32:18;8.60;99.90
74513;DHT22;62992;52.052;8.550;2022-12-29T18:35:13;8.60;99.90
74513;DHT22;62992;52.052;8.550;2022-12-29T18:37:58;8.60;99.90
74513;DHT22;62992;52.052;8.550;2022-12-29T18:40:43;8.60;99.90
74513;DHT22;62992;52.052;8.550;2022-12-29T18:43:27;8.50;99.90
74513;DHT22;62992;52.052;8.550;2022-12-29T18:46:12;8.50;99.90
74513;DHT22;62992;52.052;8.550;2022-12-29T18:48:56;8.40;99.90
74513;DHT22;62992;52.052;8.550;2022-12-29T18:51:40;8.40;99.90
74513;DHT22;62992;52.052;8.550;2022-12-29T18:54:31;8.40;99.90
74513;DHT22;62992;52.052;8.550;2022-12-29T18:57:16;8.40;99.90
74513;DHT22;62992;52.052;8.550;2022-12-29T19:00:00;8.30;99.90
74513;DHT22;62992;52.052;8.550;2022-12-29T19:02:45;8.30;99.90
74513;DHT22;62992;52.052;8.550;2022-12-29T19:05:37;8.30;99.90
74513;DHT22;62992;52.052;8.550;2022-12-29T19:08:22;8.30;99.90
74513;DHT22;62992;52.052;8.550;2022-12-29T19:11:06;8.20;99.90
74513;DHT22;62992;52.052;8.550;2022-12-29T19:13:50;8.20;99.90
74513;DHT22;62992;52.052;8.550;2022-12-29T19:16:34;8.10;99.90
74513;DHT22;62992;52.052;8.550;2022-12-29T19:19:18;8.10;99.90
74513;DHT22;62992;52.052;8.550;2022-12-29T19:22:03;8.00;99.90
74513;DHT22;62992;52.052;8.550;2022-12-29T19:24:47;8.10;99.90
74513;DHT22;62992;52.052;8.550;2022-12-29T19:27:31;8.00;99.90
74513;DHT22;62992;52.052;8.550;2022-12-29T19:30:17;8.00;99.90
74513;DHT22;62992;52.052;8.550;2022-12-29T19:33:02;8.00;99.90
74513;DHT22;62992;52.052;8.550;2022-12-29T19:35:48;8.00;99.90
74513;DHT22;62992;52.052;8.550;2022-12-29T19:38:33;8.00;99.90
74513;DHT22;62992;52.052;8.550;2022-12-29T19:41:17;7.90;99.90
74513;DHT22;62992;52.052;8.550;2022-12-29T19:44:01;7.80;99.90
74513;DHT22;62992;52.052;8.550;2022-12-29T19:46:45;7.80;99.90
74513;DHT22;62992;52.052;8.550;2022-12-29T19:49:29;7.80;99.90
74513;DHT22;62992;52.052;8.550;2022-12-29T19:52:13;7.80;99.90
74513;DHT22;62992;52.052;8.550;2022-12-29T19:54:58;7.80;99.90
74513;DHT22;62992;52.052;8.550;2022-12-29T19:57:42;7.70;99.90
74513;DHT22;62992;52.052;8.550;2022-12-29T20:00:27;7.80;99.90
74513;DHT22;62992;52.052;8.550;2022-12-29T20:03:11;7.80;99.90
74513;DHT22;62992;52.052;8.550;2022-12-29T20:05:55;7.80;99.90
74513;DHT22;62992;52.052;8.550;2022-12-29T20:08:40;7.80;99.90